Lynn, Wisconsin
Current Conditions -  °F | °C
As of 2:54 PM on Sunday 21 Dec 2014 (Local Time) from KMFI Reporting Station
Light Snow Light Snow  
Wind Chill: 23°   Ceiling: 300
Heat Index: 34°   Visibility: 0.75mi
Dew Point: 32°   Wind: 17mph
Humidity: 92%   Direction: 160°SSE
Pressure: 29.89"   Gusts: 22mph
Location:  44.5388°N, 90.4382°W
Report Text: KMFI 212054Z AUTO 16015G19KT 3/4SM -SN BR OVC003 01/00 A2989 RMK AO2 SLP136 P0000 60000 I3000 T00110000 56009
Loading
Personal Weather Stations






























Interactive Weather Map New forecast layout! Learn more

10-Day Weather Forecast

Advertisements
Track Severe Weather on mobile